createdAt,value
2022-12-31T00:00:47.354Z,17.70
2022-12-31T00:03:14.416Z,17.70
2022-12-31T00:05:41.382Z,17.70
2022-12-31T00:08:09.652Z,17.60
2022-12-31T00:10:41.500Z,17.60
2022-12-31T00:13:10.140Z,17.60
2022-12-31T00:15:38.176Z,17.60
2022-12-31T00:18:05.431Z,17.60
2022-12-31T00:20:32.384Z,17.70
2022-12-31T00:23:00.110Z,17.70
2022-12-31T00:25:28.240Z,17.70
2022-12-31T00:27:55.878Z,17.70
2022-12-31T00:30:22.834Z,17.70
2022-12-31T00:32:49.966Z,17.70
2022-12-31T00:35:18.363Z,17.70
2022-12-31T00:37:45.298Z,17.80
2022-12-31T00:40:12.494Z,17.90
2022-12-31T00:42:40.642Z,17.80
2022-12-31T00:45:08.185Z,17.80
2022-12-31T00:47:35.300Z,17.80
2022-12-31T00:50:02.402Z,17.80
2022-12-31T00:52:29.358Z,17.80
2022-12-31T00:54:57.896Z,17.80
2022-12-31T00:57:25.251Z,17.80
2022-12-31T00:59:52.264Z,17.80
2022-12-31T01:02:19.412Z,17.90
2022-12-31T01:04:46.563Z,17.90
2022-12-31T01:07:13.470Z,17.90
2022-12-31T01:09:40.540Z,18.00
2022-12-31T01:12:07.652Z,18.00
2022-12-31T01:14:34.625Z,18.00
2022-12-31T01:17:01.511Z,18.00
2022-12-31T01:19:29.835Z,17.90
2022-12-31T01:21:57.279Z,17.90
2022-12-31T01:24:24.516Z,17.90
2022-12-31T01:26:51.804Z,17.90
2022-12-31T01:29:19.310Z,18.00
2022-12-31T01:31:46.457Z,17.90
2022-12-31T01:34:13.559Z,17.80
2022-12-31T01:36:40.732Z,17.90
2022-12-31T01:39:09.460Z,18.00
2022-12-31T01:41:39.277Z,18.00
2022-12-31T01:44:12.192Z,18.00
2022-12-31T01:46:58.344Z,18.00
2022-12-31T01:49:28.610Z,17.90
2022-12-31T01:52:28.000Z,18.00
2022-12-31T01:55:01.337Z,17.90
2022-12-31T01:57:28.691Z,17.80
2022-12-31T01:59:57.462Z,17.80
2022-12-31T02:02:24.512Z,17.80
2022-12-31T02:04:55.740Z,17.70
2022-12-31T02:07:23.647Z,17.80
2022-12-31T02:09:50.786Z,17.80
2022-12-31T02:12:17.814Z,17.70
2022-12-31T02:14:48.529Z,17.70
2022-12-31T02:17:29.513Z,17.60
2022-12-31T02:20:28.379Z,17.60
2022-12-31T02:23:22.906Z,17.60
2022-12-31T02:25:52.667Z,17.60
2022-12-31T02:28:43.702Z,17.60
2022-12-31T02:31:48.235Z,17.60
2022-12-31T02:34:41.489Z,17.50
2022-12-31T02:37:12.544Z,17.40
2022-12-31T02:39:40.964Z,17.30
2022-12-31T02:42:09.666Z,17.30
2022-12-31T02:44:39.138Z,17.30
2022-12-31T02:47:09.192Z,17.30
2022-12-31T02:49:47.030Z,17.30
2022-12-31T02:52:17.079Z,17.30
2022-12-31T02:55:03.046Z,17.30
2022-12-31T02:57:42.067Z,17.20
2022-12-31T03:00:33.676Z,17.30
2022-12-31T03:03:02.569Z,17.30
2022-12-31T03:05:33.674Z,17.30
2022-12-31T03:08:00.699Z,17.30
2022-12-31T03:10:27.708Z,17.30
2022-12-31T03:12:54.684Z,17.30
2022-12-31T03:15:27.465Z,17.40
2022-12-31T03:18:07.539Z,17.40
2022-12-31T03:21:04.618Z,17.30
2022-12-31T03:23:41.007Z,17.30
2022-12-31T03:26:10.749Z,17.30
2022-12-31T03:28:42.687Z,17.20
2022-12-31T03:31:10.013Z,17.10
2022-12-31T03:33:40.526Z,17.00
2022-12-31T03:36:12.521Z,16.90
2022-12-31T03:38:40.249Z,16.90
2022-12-31T03:41:10.038Z,16.80
2022-12-31T03:43:36.997Z,16.70
2022-12-31T03:46:04.097Z,16.70
2022-12-31T03:48:31.112Z,16.70
2022-12-31T03:50:58.047Z,16.70
2022-12-31T03:53:25.743Z,16.70
2022-12-31T03:55:53.658Z,16.70
2022-12-31T03:58:21.661Z,16.80
2022-12-31T04:00:49.031Z,16.80
2022-12-31T04:03:16.179Z,16.80
2022-12-31T04:05:43.168Z,16.60
2022-12-31T04:08:10.192Z,16.70
2022-12-31T04:10:37.167Z,16.70
2022-12-31T04:13:04.906Z,16.70
2022-12-31T04:15:32.308Z,16.60
2022-12-31T04:17:59.360Z,16.50
2022-12-31T04:20:26.375Z,16.40
2022-12-31T04:22:53.375Z,16.50
2022-12-31T04:25:20.369Z,16.60
2022-12-31T04:27:47.245Z,16.70
2022-12-31T04:30:14.540Z,16.80
2022-12-31T04:32:42.056Z,16.80
2022-12-31T04:35:09.962Z,16.80
2022-12-31T04:37:36.926Z,16.90
2022-12-31T04:40:06.726Z,17.00
2022-12-31T04:42:34.568Z,17.10
2022-12-31T04:45:01.446Z,17.10
2022-12-31T04:47:28.483Z,17.20
2022-12-31T04:49:55.420Z,17.30
2022-12-31T04:52:22.891Z,17.30
2022-12-31T04:54:49.844Z,17.20
2022-12-31T04:57:16.712Z,17.20
2022-12-31T04:59:43.602Z,17.20
2022-12-31T05:02:10.656Z,17.20
2022-12-31T05:04:37.662Z,17.20
2022-12-31T05:07:04.636Z,17.20
2022-12-31T05:09:31.581Z,17.30
2022-12-31T05:11:58.589Z,17.40
2022-12-31T05:14:26.481Z,17.40
2022-12-31T05:16:53.587Z,17.50
2022-12-31T05:19:20.647Z,17.40
2022-12-31T05:22:07.534Z,17.30
2022-12-31T05:24:34.537Z,17.20
2022-12-31T05:27:01.923Z,17.30
2022-12-31T05:29:28.910Z,17.20
2022-12-31T05:31:55.821Z,17.10
2022-12-31T05:34:22.807Z,17.10
2022-12-31T05:36:49.798Z,16.90
2022-12-31T05:39:16.738Z,16.90
2022-12-31T05:41:43.711Z,16.80
2022-12-31T05:44:11.060Z,16.80
2022-12-31T05:46:38.126Z,16.80
2022-12-31T05:49:05.088Z,16.80
2022-12-31T05:51:32.217Z,16.80
2022-12-31T05:53:59.261Z,16.80
2022-12-31T05:56:26.255Z,16.70
2022-12-31T05:58:53.224Z,16.80
2022-12-31T06:01:20.282Z,16.80
2022-12-31T06:03:47.595Z,16.90
2022-12-31T06:06:14.498Z,16.80
2022-12-31T06:08:41.562Z,16.70
2022-12-31T06:11:08.486Z,16.80
2022-12-31T06:13:35.496Z,16.70
2022-12-31T06:16:07.218Z,16.70
2022-12-31T06:18:34.241Z,16.70
2022-12-31T06:21:01.598Z,16.60
2022-12-31T06:23:28.596Z,16.40
2022-12-31T06:25:55.516Z,16.50
2022-12-31T06:28:22.643Z,16.50
2022-12-31T06:30:49.675Z,16.50
2022-12-31T06:33:16.663Z,16.40
2022-12-31T06:35:43.598Z,16.30
2022-12-31T06:38:10.690Z,16.20
2022-12-31T06:40:38.178Z,16.00
2022-12-31T06:43:05.808Z,16.00
2022-12-31T06:45:32.816Z,16.00
2022-12-31T06:47:59.847Z,15.80
2022-12-31T06:50:26.799Z,15.60
2022-12-31T06:52:53.837Z,15.60
2022-12-31T06:55:21.136Z,15.50
2022-12-31T06:57:48.359Z,15.60
2022-12-31T07:00:15.895Z,15.60
2022-12-31T07:02:48.565Z,15.70
2022-12-31T07:05:56.967Z,15.60
2022-12-31T07:08:45.294Z,15.70
2022-12-31T07:11:29.186Z,15.80
2022-12-31T07:14:36.707Z,16.00
2022-12-31T07:17:13.024Z,15.90
2022-12-31T07:19:57.362Z,16.00
2022-12-31T07:22:24.899Z,16.30
2022-12-31T07:24:52.136Z,16.40
2022-12-31T07:27:49.462Z,16.50
2022-12-31T07:30:20.347Z,16.50
2022-12-31T07:33:06.109Z,16.50
2022-12-31T07:35:45.034Z,16.50
2022-12-31T07:38:36.246Z,16.40
2022-12-31T07:41:09.642Z,16.50
2022-12-31T07:43:48.918Z,16.60
2022-12-31T07:46:41.561Z,16.60
2022-12-31T07:49:13.423Z,16.60
2022-12-31T07:51:41.218Z,16.80
2022-12-31T07:54:13.624Z,16.90
2022-12-31T07:56:42.113Z,17.20
2022-12-31T07:59:24.688Z,17.50
2022-12-31T08:02:29.713Z,17.80
2022-12-31T08:05:38.640Z,17.90
2022-12-31T08:08:24.391Z,18.00
2022-12-31T08:11:05.420Z,18.30
2022-12-31T08:13:32.824Z,18.60
2022-12-31T08:16:02.260Z,18.90
2022-12-31T08:18:29.507Z,19.00
2022-12-31T08:21:35.169Z,19.20
2022-12-31T08:24:43.491Z,19.30
2022-12-31T08:27:31.765Z,19.40
2022-12-31T08:30:05.805Z,19.80
2022-12-31T08:32:50.746Z,19.90
2022-12-31T08:35:49.947Z,20.60
2022-12-31T08:38:48.502Z,21.30
2022-12-31T08:41:42.517Z,22.40
2022-12-31T08:44:23.120Z,23.30
2022-12-31T08:47:14.834Z,23.10
2022-12-31T08:49:42.426Z,22.80
2022-12-31T08:52:16.377Z,22.30
2022-12-31T08:54:43.596Z,21.80
2022-12-31T08:57:46.558Z,21.40
2022-12-31T09:00:15.962Z,20.90
2022-12-31T09:03:15.981Z,20.60
2022-12-31T09:06:12.423Z,20.50
2022-12-31T09:09:11.827Z,20.30
2022-12-31T09:11:59.008Z,20.20
2022-12-31T09:14:25.951Z,20.00
2022-12-31T09:16:52.833Z,20.10
2022-12-31T09:19:19.853Z,20.20
2022-12-31T09:21:47.072Z,20.20
2022-12-31T09:24:15.823Z,20.30
2022-12-31T09:27:05.383Z,20.40
2022-12-31T09:29:37.837Z,20.50
2022-12-31T09:32:32.504Z,20.50
2022-12-31T09:35:07.979Z,20.70
2022-12-31T09:37:49.873Z,20.70
2022-12-31T09:40:28.935Z,20.70
2022-12-31T09:43:36.732Z,20.70
2022-12-31T09:46:03.612Z,20.70
2022-12-31T09:48:43.897Z,20.80
2022-12-31T09:51:28.413Z,20.90
2022-12-31T09:54:29.261Z,20.90
2022-12-31T09:57:18.023Z,20.90
2022-12-31T10:00:05.968Z,20.90
2022-12-31T10:03:07.868Z,20.90
2022-12-31T10:06:16.372Z,20.90
2022-12-31T10:09:17.295Z,20.80
2022-12-31T10:12:11.889Z,20.90
2022-12-31T10:15:03.620Z,21.10
2022-12-31T10:17:40.935Z,21.10
2022-12-31T10:20:24.472Z,21.20
2022-12-31T10:23:26.201Z,21.20
2022-12-31T10:26:28.522Z,21.10
2022-12-31T10:29:23.124Z,21.10
2022-12-31T10:31:53.233Z,21.20
2022-12-31T10:34:32.155Z,21.20
2022-12-31T10:37:33.917Z,21.10
2022-12-31T10:40:32.317Z,21.20
2022-12-31T10:43:30.375Z,21.20
2022-12-31T10:46:35.372Z,21.30
2022-12-31T10:49:20.675Z,21.30
2022-12-31T10:52:09.747Z,21.30
2022-12-31T10:54:55.845Z,21.20
2022-12-31T10:57:37.363Z,21.10
2022-12-31T11:00:21.087Z,21.10
2022-12-31T11:03:03.707Z,21.10
2022-12-31T11:06:08.018Z,21.10
2022-12-31T11:08:48.512Z,21.10
2022-12-31T11:11:43.052Z,21.10
2022-12-31T11:14:43.882Z,21.10
2022-12-31T11:17:24.671Z,21.00
2022-12-31T11:20:35.873Z,21.10
2022-12-31T11:23:21.056Z,21.10
2022-12-31T11:26:19.877Z,21.30
2022-12-31T11:29:13.830Z,21.40
2022-12-31T11:32:01.931Z,21.50
2022-12-31T11:34:37.983Z,21.50
2022-12-31T11:37:04.828Z,21.50
2022-12-31T11:39:35.614Z,21.70
2022-12-31T11:42:20.762Z,21.80
2022-12-31T11:45:27.280Z,21.80
2022-12-31T11:51:10.232Z,21.80
2022-12-31T11:54:14.977Z,22.00
2022-12-31T11:56:47.276Z,22.00
2022-12-31T11:59:19.445Z,21.90
2022-12-31T12:02:24.174Z,21.80
2022-12-31T12:04:51.575Z,21.90
2022-12-31T12:07:19.717Z,21.90
2022-12-31T12:09:46.808Z,22.00
2022-12-31T12:12:16.970Z,22.00
2022-12-31T12:14:51.421Z,22.00
2022-12-31T12:17:35.010Z,22.00
2022-12-31T12:20:20.086Z,21.90
2022-12-31T12:22:56.222Z,22.10
2022-12-31T12:25:29.523Z,22.20
2022-12-31T12:27:56.479Z,22.20
2022-12-31T12:30:26.671Z,22.10
2022-12-31T12:33:06.678Z,21.90
2022-12-31T12:35:38.627Z,22.10
2022-12-31T12:38:08.250Z,22.00
2022-12-31T12:40:35.671Z,22.00
2022-12-31T12:43:03.709Z,22.10
2022-12-31T12:45:46.323Z,22.20
2022-12-31T12:48:37.026Z,22.30
2022-12-31T12:51:11.268Z,22.20
2022-12-31T12:53:49.874Z,22.10
2022-12-31T12:56:49.182Z,22.10
2022-12-31T12:59:31.097Z,22.10
2022-12-31T13:02:25.733Z,22.20
2022-12-31T13:05:21.703Z,22.20
2022-12-31T13:08:14.793Z,22.20
2022-12-31T13:14:11.352Z,22.00
2022-12-31T13:17:04.150Z,21.90
2022-12-31T13:19:55.030Z,21.90
2022-12-31T13:23:01.456Z,21.80
2022-12-31T13:25:50.397Z,21.60
2022-12-31T13:28:22.157Z,21.50
2022-12-31T13:31:06.359Z,21.50
2022-12-31T13:33:41.457Z,21.40
2022-12-31T13:36:13.636Z,21.40
2022-12-31T13:38:52.823Z,21.40
2022-12-31T13:41:48.462Z,21.20
2022-12-31T13:44:31.169Z,21.30
2022-12-31T13:47:20.025Z,21.10
2022-12-31T13:49:54.832Z,21.10
2022-12-31T13:52:44.230Z,21.20
2022-12-31T13:55:18.977Z,20.70
2022-12-31T13:57:53.572Z,20.70
2022-12-31T14:00:52.212Z,20.60
2022-12-31T14:03:19.294Z,20.60
2022-12-31T14:06:07.663Z,20.60
2022-12-31T14:08:34.668Z,20.40
2022-12-31T14:11:24.057Z,20.20
2022-12-31T14:14:06.957Z,20.30
2022-12-31T14:17:05.398Z,20.20
2022-12-31T14:19:47.482Z,20.20
2022-12-31T14:22:25.941Z,20.10
2022-12-31T14:24:53.475Z,20.10
2022-12-31T14:27:30.228Z,19.80
2022-12-31T14:30:06.219Z,20.30
2022-12-31T14:32:35.939Z,19.80
2022-12-31T14:35:18.741Z,19.80
2022-12-31T14:38:16.498Z,19.70
2022-12-31T14:40:56.084Z,19.40
2022-12-31T14:43:59.311Z,19.30
2022-12-31T14:46:58.342Z,19.20
2022-12-31T14:49:30.949Z,19.20
2022-12-31T14:52:28.293Z,19.10
2022-12-31T14:55:09.997Z,19.10
2022-12-31T14:58:17.241Z,18.80
2022-12-31T15:00:35.840Z,18.60
2022-12-31T15:03:24.197Z,18.60
2022-12-31T15:06:22.984Z,18.60
2022-12-31T15:09:08.582Z,18.50
2022-12-31T15:11:55.779Z,18.40
2022-12-31T15:14:58.038Z,18.30
2022-12-31T15:17:42.715Z,18.10
2022-12-31T15:20:51.424Z,17.80
2022-12-31T15:23:31.134Z,17.60
2022-12-31T15:26:00.599Z,17.50
2022-12-31T15:28:40.679Z,17.50
2022-12-31T15:31:18.120Z,17.40
2022-12-31T15:34:06.539Z,17.30
2022-12-31T15:36:35.799Z,17.20
2022-12-31T15:39:11.858Z,17.20
2022-12-31T15:41:46.021Z,16.90
2022-12-31T15:44:45.134Z,16.90
2022-12-31T15:47:30.682Z,16.90
2022-12-31T15:50:02.937Z,16.90
2022-12-31T15:52:50.046Z,16.80
2022-12-31T15:55:42.885Z,16.80
2022-12-31T15:58:16.799Z,16.70
2022-12-31T16:01:05.888Z,16.60
2022-12-31T16:03:33.921Z,16.50
2022-12-31T16:06:12.673Z,16.40
2022-12-31T16:08:43.735Z,16.30
2022-12-31T16:11:10.951Z,16.30
2022-12-31T16:13:41.890Z,16.30
2022-12-31T16:16:19.096Z,16.30
2022-12-31T16:18:46.241Z,16.20
2022-12-31T16:21:29.739Z,16.20
2022-12-31T16:24:04.092Z,16.30
2022-12-31T16:26:46.744Z,16.40
2022-12-31T16:29:18.837Z,16.30
2022-12-31T16:31:47.411Z,16.20
2022-12-31T16:34:22.159Z,16.30
2022-12-31T16:37:04.487Z,16.10
2022-12-31T16:39:32.930Z,16.00
2022-12-31T16:42:09.214Z,16.00
2022-12-31T16:44:36.186Z,16.00
2022-12-31T16:47:04.157Z,15.90
2022-12-31T16:49:33.295Z,16.00
2022-12-31T16:52:06.655Z,15.90
2022-12-31T16:54:39.017Z,15.90
2022-12-31T16:57:06.726Z,16.00
2022-12-31T16:59:46.451Z,15.90
2022-12-31T17:02:20.301Z,15.80
2022-12-31T17:04:55.405Z,15.80
2022-12-31T17:07:32.537Z,15.80
2022-12-31T17:10:08.824Z,15.80
2022-12-31T17:13:17.458Z,15.70
2022-12-31T17:15:42.478Z,15.60
2022-12-31T17:18:26.379Z,15.60
2022-12-31T17:20:55.203Z,15.40
2022-12-31T17:23:31.320Z,15.40
2022-12-31T17:26:00.496Z,15.50
2022-12-31T17:28:32.115Z,15.30
2022-12-31T17:31:02.144Z,15.40
2022-12-31T17:33:30.504Z,15.30
2022-12-31T17:36:15.288Z,15.40
2022-12-31T17:38:42.579Z,15.30
2022-12-31T17:41:28.236Z,15.20
2022-12-31T17:43:56.939Z,15.20
2022-12-31T17:46:25.564Z,15.20
2022-12-31T17:49:01.005Z,15.10
2022-12-31T17:51:28.010Z,15.10
2022-12-31T17:53:55.019Z,15.00
2022-12-31T17:56:22.012Z,14.90
2022-12-31T17:58:53.837Z,15.00
2022-12-31T18:01:23.068Z,14.90
2022-12-31T18:03:50.451Z,15.00
2022-12-31T18:06:19.601Z,15.10
2022-12-31T18:08:46.962Z,15.00
2022-12-31T18:11:20.945Z,15.00
2022-12-31T18:13:48.679Z,15.00
2022-12-31T18:16:15.898Z,15.00
2022-12-31T18:18:43.773Z,15.10
2022-12-31T18:21:18.241Z,15.00
2022-12-31T18:23:46.970Z,14.80
2022-12-31T18:26:20.344Z,14.80
2022-12-31T18:28:47.867Z,14.90
2022-12-31T18:31:27.303Z,15.00
2022-12-31T18:33:56.187Z,14.90
2022-12-31T18:36:24.143Z,15.00
2022-12-31T18:38:51.649Z,14.90
2022-12-31T18:41:26.900Z,15.00
2022-12-31T18:43:54.817Z,14.90
2022-12-31T18:46:25.311Z,15.00
2022-12-31T18:48:52.322Z,15.10
2022-12-31T18:51:31.275Z,15.10
2022-12-31T18:53:59.795Z,15.20
2022-12-31T18:56:26.745Z,15.00
2022-12-31T18:58:53.964Z,15.00
2022-12-31T19:01:39.289Z,15.00
2022-12-31T19:04:27.620Z,15.00
2022-12-31T19:06:56.564Z,15.00
2022-12-31T19:09:44.653Z,15.00
2022-12-31T19:12:13.523Z,14.90
2022-12-31T19:14:40.571Z,15.00
2022-12-31T19:19:34.796Z,15.00
2022-12-31T19:22:02.725Z,15.00
2022-12-31T19:24:29.899Z,14.60
2022-12-31T19:26:56.880Z,14.60
2022-12-31T19:29:26.812Z,14.70
2022-12-31T19:31:54.293Z,14.90
2022-12-31T19:34:21.583Z,14.90
2022-12-31T19:36:51.806Z,15.00
2022-12-31T19:39:21.049Z,15.00
2022-12-31T19:41:54.755Z,15.20
2022-12-31T19:44:25.411Z,15.30
2022-12-31T19:46:52.352Z,15.30
2022-12-31T19:49:19.274Z,15.40
2022-12-31T19:51:46.282Z,15.50
2022-12-31T19:54:13.745Z,15.60
2022-12-31T19:56:41.013Z,15.80
2022-12-31T19:59:10.044Z,16.00
2022-12-31T20:01:37.541Z,16.10
2022-12-31T20:04:04.951Z,16.30
2022-12-31T20:06:31.931Z,16.30
2022-12-31T20:08:58.872Z,16.20
2022-12-31T20:11:26.246Z,16.20
2022-12-31T20:13:54.049Z,16.10
2022-12-31T20:16:23.975Z,16.00
2022-12-31T20:18:51.339Z,16.00
2022-12-31T20:21:21.329Z,16.00
2022-12-31T20:23:50.238Z,16.00
2022-12-31T20:26:17.987Z,16.10
2022-12-31T20:28:45.397Z,16.10
2022-12-31T20:31:15.982Z,16.00
2022-12-31T20:33:43.244Z,15.90
2022-12-31T20:36:13.486Z,15.80
2022-12-31T20:38:40.616Z,15.80
2022-12-31T20:41:10.375Z,15.60
2022-12-31T20:43:37.940Z,15.60
2022-12-31T20:46:14.869Z,15.50
2022-12-31T20:48:44.000Z,15.40
2022-12-31T20:51:11.761Z,15.30
2022-12-31T20:53:38.820Z,15.20
2022-12-31T20:56:07.490Z,15.10
2022-12-31T20:58:35.010Z,15.10
2022-12-31T21:01:05.208Z,15.20
2022-12-31T21:06:19.531Z,15.30
2022-12-31T21:08:47.115Z,15.30
2022-12-31T21:11:33.303Z,15.30
2022-12-31T21:14:02.118Z,15.30
2022-12-31T21:16:29.299Z,15.30
2022-12-31T21:18:56.880Z,15.20
2022-12-31T21:21:24.130Z,15.20
2022-12-31T21:23:51.134Z,15.20
2022-12-31T21:26:18.114Z,15.10
2022-12-31T21:28:45.402Z,15.10
2022-12-31T21:31:14.149Z,15.30
2022-12-31T21:33:47.806Z,15.60
2022-12-31T21:36:15.825Z,15.70
2022-12-31T21:38:44.109Z,15.80
2022-12-31T21:41:33.596Z,15.90
2022-12-31T21:44:02.433Z,16.00
2022-12-31T21:46:29.833Z,16.20
2022-12-31T21:49:00.781Z,16.30
2022-12-31T21:51:30.027Z,16.40
2022-12-31T21:53:57.394Z,16.40
2022-12-31T21:56:24.461Z,16.50
2022-12-31T21:59:15.057Z,16.50
2022-12-31T22:02:01.715Z,16.60
2022-12-31T22:05:00.958Z,16.70
2022-12-31T22:07:16.113Z,16.70
2022-12-31T22:09:43.022Z,16.70
2022-12-31T22:12:10.041Z,16.80
2022-12-31T22:14:36.989Z,16.90
2022-12-31T22:17:04.001Z,16.90
2022-12-31T22:19:30.975Z,16.80
2022-12-31T22:21:57.952Z,16.90
2022-12-31T22:24:24.898Z,16.90
2022-12-31T22:26:54.204Z,16.90
2022-12-31T22:29:21.618Z,16.90
2022-12-31T22:31:48.576Z,16.90
2022-12-31T22:34:15.579Z,17.00
2022-12-31T22:36:42.633Z,16.90
2022-12-31T22:39:44.659Z,16.90
2022-12-31T22:42:02.122Z,16.90
2022-12-31T22:44:29.158Z,17.00
2022-12-31T22:46:56.374Z,17.00
2022-12-31T22:49:23.458Z,17.00
2022-12-31T22:51:55.794Z,17.00
2022-12-31T22:54:25.749Z,17.00
2022-12-31T22:56:52.862Z,17.00
2022-12-31T22:59:19.871Z,17.00
2022-12-31T23:01:47.467Z,16.90
2022-12-31T23:04:14.688Z,17.00
2022-12-31T23:06:44.599Z,17.00
2022-12-31T23:09:35.236Z,17.10
2022-12-31T23:12:02.965Z,17.10
2022-12-31T23:14:48.287Z,17.10
2022-12-31T23:17:40.839Z,17.20
2022-12-31T23:20:34.347Z,17.10
2022-12-31T23:23:10.187Z,17.10
2022-12-31T23:25:46.322Z,17.00
2022-12-31T23:28:20.131Z,17.00
2022-12-31T23:30:47.215Z,17.10
2022-12-31T23:33:16.992Z,17.00
2022-12-31T23:35:44.581Z,17.00
2022-12-31T23:38:12.636Z,17.00
2022-12-31T23:40:39.686Z,16.90
2022-12-31T23:43:08.162Z,16.90
2022-12-31T23:45:35.410Z,17.00
2022-12-31T23:48:03.208Z,17.10
2022-12-31T23:50:30.209Z,17.00
2022-12-31T23:52:57.205Z,17.00
2022-12-31T23:55:24.119Z,17.00
2022-12-31T23:57:51.101Z,17.00
